sensor_id;sensor_type;location;lat;lon;timestamp;temperature;humidity
5834;DHT22;2943;48.012;10.968;2022-08-30T00:02:16;19.60;99.90
5834;DHT22;2943;48.012;10.968;2022-08-30T00:04:45;19.50;99.90
5834;DHT22;2943;48.012;10.968;2022-08-30T00:07:11;19.50;99.90
5834;DHT22;2943;48.012;10.968;2022-08-30T00:09:38;19.50;99.90
5834;DHT22;2943;48.012;10.968;2022-08-30T00:12:05;19.50;99.90
5834;DHT22;2943;48.012;10.968;2022-08-30T00:14:33;19.50;99.90
5834;DHT22;2943;48.012;10.968;2022-08-30T00:17:00;19.50;99.90
5834;DHT22;2943;48.012;10.968;2022-08-30T00:19:28;19.40;99.90
5834;DHT22;2943;48.012;10.968;2022-08-30T00:21:55;19.50;99.90
5834;DHT22;2943;48.012;10.968;2022-08-30T00:24:22;19.40;99.90
5834;DHT22;2943;48.012;10.968;2022-08-30T00:26:49;19.40;99.90
5834;DHT22;2943;48.012;10.968;2022-08-30T00:29:15;19.40;99.90
5834;DHT22;2943;48.012;10.968;2022-08-30T00:31:42;19.40;99.90
5834;DHT22;2943;48.012;10.968;2022-08-30T00:34:09;19.40;99.90
5834;DHT22;2943;48.012;10.968;2022-08-30T00:36:37;19.30;99.90
5834;DHT22;2943;48.012;10.968;2022-08-30T00:39:04;19.30;99.90
5834;DHT22;2943;48.012;10.968;2022-08-30T00:41:31;19.30;99.90
5834;DHT22;2943;48.012;10.968;2022-08-30T00:43:58;19.30;99.90
5834;DHT22;2943;48.012;10.968;2022-08-30T00:46:25;19.30;99.90
5834;DHT22;2943;48.012;10.968;2022-08-30T00:48:52;19.30;99.90
5834;DHT22;2943;48.012;10.968;2022-08-30T00:51:20;19.20;99.90
5834;DHT22;2943;48.012;10.968;2022-08-30T00:53:53;19.30;99.90
5834;DHT22;2943;48.012;10.968;2022-08-30T00:56:21;19.20;99.90
5834;DHT22;2943;48.012;10.968;2022-08-30T00:58:51;19.20;99.90
5834;DHT22;2943;48.012;10.968;2022-08-30T01:01:20;19.20;99.90
5834;DHT22;2943;48.012;10.968;2022-08-30T01:03:47;19.20;99.90
5834;DHT22;2943;48.012;10.968;2022-08-30T01:06:15;19.10;99.90
5834;DHT22;2943;48.012;10.968;2022-08-30T01:08:43;19.10;99.90
5834;DHT22;2943;48.012;10.968;2022-08-30T01:11:12;19.10;99.90
5834;DHT22;2943;48.012;10.968;2022-08-30T01:13:40;19.10;99.90
5834;DHT22;2943;48.012;10.968;2022-08-30T01:16:08;19.10;99.90
5834;DHT22;2943;48.012;10.968;2022-08-30T01:18:36;19.10;99.90
5834;DHT22;2943;48.012;10.968;2022-08-30T01:21:08;19.00;99.90
5834;DHT22;2943;48.012;10.968;2022-08-30T01:23:43;19.00;99.90
5834;DHT22;2943;48.012;10.968;2022-08-30T01:26:12;19.00;99.90
5834;DHT22;2943;48.012;10.968;2022-08-30T01:28:40;19.00;99.90
5834;DHT22;2943;48.012;10.968;2022-08-30T01:31:07;19.00;99.90
5834;DHT22;2943;48.012;10.968;2022-08-30T01:33:35;19.00;99.90
5834;DHT22;2943;48.012;10.968;2022-08-30T01:36:06;19.00;99.90
5834;DHT22;2943;48.012;10.968;2022-08-30T01:38:38;18.90;99.90
5834;DHT22;2943;48.012;10.968;2022-08-30T01:41:11;18.90;99.90
5834;DHT22;2943;48.012;10.968;2022-08-30T01:43:39;18.80;99.90
5834;DHT22;2943;48.012;10.968;2022-08-30T01:46:05;18.80;99.90
5834;DHT22;2943;48.012;10.968;2022-08-30T01:48:32;18.80;99.90
5834;DHT22;2943;48.012;10.968;2022-08-30T01:50:59;18.80;99.90
5834;DHT22;2943;48.012;10.968;2022-08-30T01:53:27;18.80;99.90
5834;DHT22;2943;48.012;10.968;2022-08-30T01:55:54;18.80;99.90
5834;DHT22;2943;48.012;10.968;2022-08-30T01:58:22;18.80;99.90
5834;DHT22;2943;48.012;10.968;2022-08-30T02:00:49;18.80;99.90
5834;DHT22;2943;48.012;10.968;2022-08-30T02:03:16;18.80;99.90
5834;DHT22;2943;48.012;10.968;2022-08-30T02:05:44;18.80;99.90
5834;DHT22;2943;48.012;10.968;2022-08-30T02:08:11;18.80;99.90
5834;DHT22;2943;48.012;10.968;2022-08-30T02:10:38;18.80;99.90
5834;DHT22;2943;48.012;10.968;2022-08-30T02:13:04;18.70;99.90
5834;DHT22;2943;48.012;10.968;2022-08-30T02:15:33;18.70;99.90
5834;DHT22;2943;48.012;10.968;2022-08-30T02:18:00;18.70;99.90
5834;DHT22;2943;48.012;10.968;2022-08-30T02:20:27;18.70;99.90
5834;DHT22;2943;48.012;10.968;2022-08-30T02:22:54;18.60;99.90
5834;DHT22;2943;48.012;10.968;2022-08-30T02:25:21;18.60;99.90
5834;DHT22;2943;48.012;10.968;2022-08-30T02:27:47;18.60;99.90
5834;DHT22;2943;48.012;10.968;2022-08-30T02:30:14;18.60;99.90
5834;DHT22;2943;48.012;10.968;2022-08-30T02:32:43;18.60;99.90
5834;DHT22;2943;48.012;10.968;2022-08-30T02:35:09;18.60;99.90
5834;DHT22;2943;48.012;10.968;2022-08-30T02:37:36;18.60;99.90
5834;DHT22;2943;48.012;10.968;2022-08-30T02:40:04;18.60;99.90
5834;DHT22;2943;48.012;10.968;2022-08-30T02:42:32;18.50;99.90
5834;DHT22;2943;48.012;10.968;2022-08-30T02:44:59;18.50;99.90
5834;DHT22;2943;48.012;10.968;2022-08-30T02:47:26;18.50;99.90
5834;DHT22;2943;48.012;10.968;2022-08-30T02:49:54;18.50;99.90
5834;DHT22;2943;48.012;10.968;2022-08-30T02:52:21;18.40;99.90
5834;DHT22;2943;48.012;10.968;2022-08-30T02:54:47;18.40;99.90
5834;DHT22;2943;48.012;10.968;2022-08-30T02:57:14;18.40;99.90
5834;DHT22;2943;48.012;10.968;2022-08-30T02:59:41;18.40;99.90
5834;DHT22;2943;48.012;10.968;2022-08-30T03:02:10;18.40;99.90
5834;DHT22;2943;48.012;10.968;2022-08-30T03:04:38;18.40;99.90
5834;DHT22;2943;48.012;10.968;2022-08-30T03:07:06;18.40;99.90
5834;DHT22;2943;48.012;10.968;2022-08-30T03:09:34;18.40;99.90
5834;DHT22;2943;48.012;10.968;2022-08-30T03:12:01;18.40;99.90
5834;DHT22;2943;48.012;10.968;2022-08-30T03:14:29;18.40;99.90
5834;DHT22;2943;48.012;10.968;2022-08-30T03:16:57;18.40;99.90
5834;DHT22;2943;48.012;10.968;2022-08-30T03:19:24;18.40;99.90
5834;DHT22;2943;48.012;10.968;2022-08-30T03:21:51;18.40;99.90
5834;DHT22;2943;48.012;10.968;2022-08-30T03:24:20;18.40;99.90
5834;DHT22;2943;48.012;10.968;2022-08-30T03:26:46;18.40;99.90
5834;DHT22;2943;48.012;10.968;2022-08-30T03:29:13;18.30;99.90
5834;DHT22;2943;48.012;10.968;2022-08-30T03:31:40;18.30;99.90
5834;DHT22;2943;48.012;10.968;2022-08-30T03:34:07;18.30;99.90
5834;DHT22;2943;48.012;10.968;2022-08-30T03:36:35;18.30;99.90
5834;DHT22;2943;48.012;10.968;2022-08-30T03:39:02;18.30;99.90
5834;DHT22;2943;48.012;10.968;2022-08-30T03:41:30;18.30;99.90
5834;DHT22;2943;48.012;10.968;2022-08-30T03:43:57;18.30;99.90
5834;DHT22;2943;48.012;10.968;2022-08-30T03:46:25;18.20;99.90
5834;DHT22;2943;48.012;10.968;2022-08-30T03:48:52;18.20;99.90
5834;DHT22;2943;48.012;10.968;2022-08-30T03:51:20;18.10;99.90
5834;DHT22;2943;48.012;10.968;2022-08-30T03:53:47;18.00;99.90
5834;DHT22;2943;48.012;10.968;2022-08-30T03:56:14;17.80;99.90
5834;DHT22;2943;48.012;10.968;2022-08-30T03:58:42;17.60;99.90
5834;DHT22;2943;48.012;10.968;2022-08-30T04:01:10;17.50;99.90
5834;DHT22;2943;48.012;10.968;2022-08-30T04:03:37;17.30;99.90
5834;DHT22;2943;48.012;10.968;2022-08-30T04:06:04;17.20;99.90
5834;DHT22;2943;48.012;10.968;2022-08-30T04:08:31;17.10;99.90
5834;DHT22;2943;48.012;10.968;2022-08-30T04:10:58;17.00;99.90
5834;DHT22;2943;48.012;10.968;2022-08-30T04:13:25;16.90;99.90
5834;DHT22;2943;48.012;10.968;2022-08-30T04:15:53;16.80;99.90
5834;DHT22;2943;48.012;10.968;2022-08-30T04:18:20;16.70;99.90
5834;DHT22;2943;48.012;10.968;2022-08-30T04:20:48;16.60;99.90
5834;DHT22;2943;48.012;10.968;2022-08-30T04:23:16;16.40;99.90
5834;DHT22;2943;48.012;10.968;2022-08-30T04:25:42;16.30;99.90
5834;DHT22;2943;48.012;10.968;2022-08-30T04:28:10;16.30;99.90
5834;DHT22;2943;48.012;10.968;2022-08-30T04:30:38;16.20;99.90
5834;DHT22;2943;48.012;10.968;2022-08-30T04:33:07;16.20;99.90
5834;DHT22;2943;48.012;10.968;2022-08-30T04:35:34;16.10;99.90
5834;DHT22;2943;48.012;10.968;2022-08-30T04:38:01;16.10;99.90
5834;DHT22;2943;48.012;10.968;2022-08-30T04:40:28;16.10;99.90
5834;DHT22;2943;48.012;10.968;2022-08-30T04:42:55;16.00;99.90
5834;DHT22;2943;48.012;10.968;2022-08-30T04:45:24;15.90;99.90
5834;DHT22;2943;48.012;10.968;2022-08-30T04:47:51;15.90;99.90
5834;DHT22;2943;48.012;10.968;2022-08-30T04:50:20;15.80;99.90
5834;DHT22;2943;48.012;10.968;2022-08-30T04:52:47;15.80;99.90
5834;DHT22;2943;48.012;10.968;2022-08-30T04:55:14;15.80;99.90
5834;DHT22;2943;48.012;10.968;2022-08-30T04:57:41;15.80;99.90
5834;DHT22;2943;48.012;10.968;2022-08-30T05:00:11;15.70;99.90
5834;DHT22;2943;48.012;10.968;2022-08-30T05:02:38;15.70;99.90
5834;DHT22;2943;48.012;10.968;2022-08-30T05:05:06;15.60;99.90
5834;DHT22;2943;48.012;10.968;2022-08-30T05:07:52;15.70;99.90
5834;DHT22;2943;48.012;10.968;2022-08-30T05:10:19;15.70;99.90
5834;DHT22;2943;48.012;10.968;2022-08-30T05:12:46;15.70;99.90
5834;DHT22;2943;48.012;10.968;2022-08-30T05:15:13;15.60;99.90
5834;DHT22;2943;48.012;10.968;2022-08-30T05:17:40;15.60;99.90
5834;DHT22;2943;48.012;10.968;2022-08-30T05:20:09;15.60;99.90
5834;DHT22;2943;48.012;10.968;2022-08-30T05:22:38;15.60;99.90
5834;DHT22;2943;48.012;10.968;2022-08-30T05:25:07;15.60;99.90
5834;DHT22;2943;48.012;10.968;2022-08-30T05:27:34;15.50;99.90
5834;DHT22;2943;48.012;10.968;2022-08-30T05:30:01;15.40;99.90
5834;DHT22;2943;48.012;10.968;2022-08-30T05:32:28;15.30;99.90
5834;DHT22;2943;48.012;10.968;2022-08-30T05:34:55;15.30;99.90
5834;DHT22;2943;48.012;10.968;2022-08-30T05:37:22;15.20;99.90
5834;DHT22;2943;48.012;10.968;2022-08-30T05:39:48;15.20;99.90
5834;DHT22;2943;48.012;10.968;2022-08-30T05:42:17;15.30;99.90
5834;DHT22;2943;48.012;10.968;2022-08-30T05:44:44;15.30;99.90
5834;DHT22;2943;48.012;10.968;2022-08-30T05:47:12;15.30;99.90
5834;DHT22;2943;48.012;10.968;2022-08-30T05:49:38;15.40;99.90
5834;DHT22;2943;48.012;10.968;2022-08-30T05:52:05;15.40;99.90
5834;DHT22;2943;48.012;10.968;2022-08-30T05:54:32;15.50;99.90
5834;DHT22;2943;48.012;10.968;2022-08-30T05:56:59;15.70;99.90
5834;DHT22;2943;48.012;10.968;2022-08-30T05:59:27;15.80;99.90
5834;DHT22;2943;48.012;10.968;2022-08-30T06:01:56;15.90;99.90
5834;DHT22;2943;48.012;10.968;2022-08-30T06:04:23;16.00;99.90
5834;DHT22;2943;48.012;10.968;2022-08-30T06:06:50;16.00;99.90
5834;DHT22;2943;48.012;10.968;2022-08-30T06:09:17;16.10;99.90
5834;DHT22;2943;48.012;10.968;2022-08-30T06:11:45;16.20;99.90
5834;DHT22;2943;48.012;10.968;2022-08-30T06:14:12;16.20;99.90
5834;DHT22;2943;48.012;10.968;2022-08-30T06:16:41;16.30;99.90
5834;DHT22;2943;48.012;10.968;2022-08-30T06:19:10;16.30;99.90
5834;DHT22;2943;48.012;10.968;2022-08-30T06:21:38;16.30;99.90
5834;DHT22;2943;48.012;10.968;2022-08-30T06:24:07;16.40;99.90
5834;DHT22;2943;48.012;10.968;2022-08-30T06:26:37;16.40;99.90
5834;DHT22;2943;48.012;10.968;2022-08-30T06:29:06;16.40;99.90
5834;DHT22;2943;48.012;10.968;2022-08-30T06:31:33;16.40;99.90
5834;DHT22;2943;48.012;10.968;2022-08-30T06:34:02;16.50;99.90
5834;DHT22;2943;48.012;10.968;2022-08-30T06:36:29;16.50;99.90
5834;DHT22;2943;48.012;10.968;2022-08-30T06:38:57;16.50;99.90
5834;DHT22;2943;48.012;10.968;2022-08-30T06:41:27;16.60;99.90
5834;DHT22;2943;48.012;10.968;2022-08-30T06:43:55;16.60;99.90
5834;DHT22;2943;48.012;10.968;2022-08-30T06:46:24;16.70;99.90
5834;DHT22;2943;48.012;10.968;2022-08-30T06:48:52;16.80;99.90
5834;DHT22;2943;48.012;10.968;2022-08-30T06:51:22;16.80;99.90
5834;DHT22;2943;48.012;10.968;2022-08-30T06:53:49;16.90;99.90
5834;DHT22;2943;48.012;10.968;2022-08-30T06:56:17;16.90;99.90
5834;DHT22;2943;48.012;10.968;2022-08-30T06:58:44;17.00;99.90
5834;DHT22;2943;48.012;10.968;2022-08-30T07:01:13;17.00;99.90
5834;DHT22;2943;48.012;10.968;2022-08-30T07:03:40;17.10;99.90
5834;DHT22;2943;48.012;10.968;2022-08-30T07:06:08;17.20;99.90
5834;DHT22;2943;48.012;10.968;2022-08-30T07:08:37;17.30;99.90
5834;DHT22;2943;48.012;10.968;2022-08-30T07:11:05;17.40;99.90
5834;DHT22;2943;48.012;10.968;2022-08-30T07:13:32;17.40;99.90
5834;DHT22;2943;48.012;10.968;2022-08-30T07:15:59;17.60;99.90
5834;DHT22;2943;48.012;10.968;2022-08-30T07:18:26;17.70;99.90
5834;DHT22;2943;48.012;10.968;2022-08-30T07:21:12;17.80;99.90
5834;DHT22;2943;48.012;10.968;2022-08-30T07:23:42;17.80;99.90
5834;DHT22;2943;48.012;10.968;2022-08-30T07:26:11;17.90;99.90
5834;DHT22;2943;48.012;10.968;2022-08-30T07:28:40;18.00;99.90
5834;DHT22;2943;48.012;10.968;2022-08-30T07:31:08;18.10;99.90
5834;DHT22;2943;48.012;10.968;2022-08-30T07:33:35;18.20;99.90
5834;DHT22;2943;48.012;10.968;2022-08-30T07:36:03;18.30;99.90
5834;DHT22;2943;48.012;10.968;2022-08-30T07:38:30;18.40;99.90
5834;DHT22;2943;48.012;10.968;2022-08-30T07:40:59;18.50;99.90
5834;DHT22;2943;48.012;10.968;2022-08-30T07:43:26;18.60;99.90
5834;DHT22;2943;48.012;10.968;2022-08-30T07:45:53;18.70;99.90
5834;DHT22;2943;48.012;10.968;2022-08-30T07:48:20;18.80;99.90
5834;DHT22;2943;48.012;10.968;2022-08-30T07:50:47;18.90;99.90
5834;DHT22;2943;48.012;10.968;2022-08-30T07:53:14;19.00;99.90
5834;DHT22;2943;48.012;10.968;2022-08-30T07:55:41;19.10;99.90
5834;DHT22;2943;48.012;10.968;2022-08-30T07:58:09;19.20;99.90
5834;DHT22;2943;48.012;10.968;2022-08-30T08:00:36;19.30;99.90
5834;DHT22;2943;48.012;10.968;2022-08-30T08:03:06;19.40;99.90
5834;DHT22;2943;48.012;10.968;2022-08-30T08:05:36;19.50;99.90
5834;DHT22;2943;48.012;10.968;2022-08-30T08:08:03;19.60;99.90
5834;DHT22;2943;48.012;10.968;2022-08-30T08:10:30;19.80;99.90
5834;DHT22;2943;48.012;10.968;2022-08-30T08:12:59;19.90;99.90
5834;DHT22;2943;48.012;10.968;2022-08-30T08:15:27;20.00;99.90
5834;DHT22;2943;48.012;10.968;2022-08-30T08:17:54;20.10;99.90
5834;DHT22;2943;48.012;10.968;2022-08-30T08:20:21;20.20;99.90
5834;DHT22;2943;48.012;10.968;2022-08-30T08:22:48;20.30;99.90
5834;DHT22;2943;48.012;10.968;2022-08-30T08:25:15;20.40;99.90
5834;DHT22;2943;48.012;10.968;2022-08-30T08:27:42;20.40;99.90
5834;DHT22;2943;48.012;10.968;2022-08-30T08:30:09;20.60;99.90
5834;DHT22;2943;48.012;10.968;2022-08-30T08:32:38;20.60;99.90
5834;DHT22;2943;48.012;10.968;2022-08-30T08:35:05;20.80;99.90
5834;DHT22;2943;48.012;10.968;2022-08-30T08:37:32;20.80;99.90
5834;DHT22;2943;48.012;10.968;2022-08-30T08:39:59;20.90;99.90
5834;DHT22;2943;48.012;10.968;2022-08-30T08:42:31;21.00;99.90
5834;DHT22;2943;48.012;10.968;2022-08-30T08:45:04;21.10;99.90
5834;DHT22;2943;48.012;10.968;2022-08-30T08:47:40;21.10;99.90
5834;DHT22;2943;48.012;10.968;2022-08-30T08:50:11;21.20;99.90
5834;DHT22;2943;48.012;10.968;2022-08-30T08:52:48;21.30;99.90
5834;DHT22;2943;48.012;10.968;2022-08-30T08:55:33;21.40;99.90
5834;DHT22;2943;48.012;10.968;2022-08-30T08:58:01;21.40;99.90
5834;DHT22;2943;48.012;10.968;2022-08-30T09:00:28;21.50;99.90
5834;DHT22;2943;48.012;10.968;2022-08-30T09:02:59;21.60;99.90
5834;DHT22;2943;48.012;10.968;2022-08-30T09:05:30;21.60;99.90
5834;DHT22;2943;48.012;10.968;2022-08-30T09:08:01;21.70;99.90
5834;DHT22;2943;48.012;10.968;2022-08-30T09:10:30;21.80;99.90
5834;DHT22;2943;48.012;10.968;2022-08-30T09:12:58;21.90;99.90
5834;DHT22;2943;48.012;10.968;2022-08-30T09:15:27;21.90;99.90
5834;DHT22;2943;48.012;10.968;2022-08-30T09:17:58;22.00;99.90
5834;DHT22;2943;48.012;10.968;2022-08-30T09:20:29;22.10;99.90
5834;DHT22;2943;48.012;10.968;2022-08-30T09:22:57;22.10;99.90
5834;DHT22;2943;48.012;10.968;2022-08-30T09:25:26;22.20;99.90
5834;DHT22;2943;48.012;10.968;2022-08-30T09:27:55;22.20;99.90
5834;DHT22;2943;48.012;10.968;2022-08-30T09:30:33;22.30;99.90
5834;DHT22;2943;48.012;10.968;2022-08-30T09:33:03;22.30;99.90
5834;DHT22;2943;48.012;10.968;2022-08-30T09:35:33;22.40;99.90
5834;DHT22;2943;48.012;10.968;2022-08-30T09:38:05;22.40;99.90
5834;DHT22;2943;48.012;10.968;2022-08-30T09:40:35;22.50;99.90
5834;DHT22;2943;48.012;10.968;2022-08-30T09:43:08;22.60;99.90
5834;DHT22;2943;48.012;10.968;2022-08-30T09:45:38;22.70;99.90
5834;DHT22;2943;48.012;10.968;2022-08-30T09:48:28;22.70;99.90
5834;DHT22;2943;48.012;10.968;2022-08-30T09:51:06;22.80;99.90
5834;DHT22;2943;48.012;10.968;2022-08-30T09:53:43;22.90;99.90
5834;DHT22;2943;48.012;10.968;2022-08-30T09:56:19;23.00;99.90
5834;DHT22;2943;48.012;10.968;2022-08-30T09:58:57;23.10;99.90
5834;DHT22;2943;48.012;10.968;2022-08-30T10:01:31;23.10;99.90
5834;DHT22;2943;48.012;10.968;2022-08-30T10:04:06;23.20;99.90
5834;DHT22;2943;48.012;10.968;2022-08-30T10:06:43;23.20;99.90
5834;DHT22;2943;48.012;10.968;2022-08-30T10:09:21;23.30;99.90
5834;DHT22;2943;48.012;10.968;2022-08-30T10:11:54;23.30;99.90
5834;DHT22;2943;48.012;10.968;2022-08-30T10:14:45;23.40;99.90
5834;DHT22;2943;48.012;10.968;2022-08-30T10:17:23;23.50;99.90
5834;DHT22;2943;48.012;10.968;2022-08-30T10:20:11;23.50;99.90
5834;DHT22;2943;48.012;10.968;2022-08-30T10:22:45;23.60;99.90
5834;DHT22;2943;48.012;10.968;2022-08-30T10:25:16;23.60;99.90
5834;DHT22;2943;48.012;10.968;2022-08-30T10:27:48;23.70;99.90
5834;DHT22;2943;48.012;10.968;2022-08-30T10:30:16;23.70;99.90
5834;DHT22;2943;48.012;10.968;2022-08-30T10:32:48;23.80;99.90
5834;DHT22;2943;48.012;10.968;2022-08-30T10:35:21;23.80;99.90
5834;DHT22;2943;48.012;10.968;2022-08-30T10:37:53;23.90;99.90
5834;DHT22;2943;48.012;10.968;2022-08-30T10:40:26;24.00;99.90
5834;DHT22;2943;48.012;10.968;2022-08-30T10:43:21;24.00;99.90
5834;DHT22;2943;48.012;10.968;2022-08-30T10:45:54;24.10;99.90
5834;DHT22;2943;48.012;10.968;2022-08-30T10:48:25;24.10;99.90
5834;DHT22;2943;48.012;10.968;2022-08-30T10:50:57;24.20;99.90
5834;DHT22;2943;48.012;10.968;2022-08-30T10:53:30;24.30;99.90
5834;DHT22;2943;48.012;10.968;2022-08-30T10:56:02;24.40;99.90
5834;DHT22;2943;48.012;10.968;2022-08-30T10:58:31;24.50;99.90
5834;DHT22;2943;48.012;10.968;2022-08-30T11:01:11;24.50;99.90
5834;DHT22;2943;48.012;10.968;2022-08-30T11:06:52;24.60;99.90
5834;DHT22;2943;48.012;10.968;2022-08-30T11:09:34;24.70;99.90
5834;DHT22;2943;48.012;10.968;2022-08-30T11:12:29;24.70;99.90
5834;DHT22;2943;48.012;10.968;2022-08-30T11:14:57;24.70;99.90
5834;DHT22;2943;48.012;10.968;2022-08-30T11:17:39;24.80;99.90
5834;DHT22;2943;48.012;10.968;2022-08-30T11:20:22;24.80;99.90
5834;DHT22;2943;48.012;10.968;2022-08-30T11:23:15;24.90;99.90
5834;DHT22;2943;48.012;10.968;2022-08-30T11:25:48;25.00;99.90
5834;DHT22;2943;48.012;10.968;2022-08-30T11:31:38;25.10;99.90
5834;DHT22;2943;48.012;10.968;2022-08-30T11:34:06;25.20;99.90
5834;DHT22;2943;48.012;10.968;2022-08-30T11:37:06;25.30;99.90
5834;DHT22;2943;48.012;10.968;2022-08-30T11:39:55;25.40;99.90
5834;DHT22;2943;48.012;10.968;2022-08-30T11:42:41;25.50;99.90
5834;DHT22;2943;48.012;10.968;2022-08-30T11:48:44;25.60;99.90
5834;DHT22;2943;48.012;10.968;2022-08-30T11:51:48;25.70;99.90
5834;DHT22;2943;48.012;10.968;2022-08-30T11:54:26;25.70;99.90
5834;DHT22;2943;48.012;10.968;2022-08-30T11:57:04;25.80;99.90
5834;DHT22;2943;48.012;10.968;2022-08-30T11:59:38;25.90;99.90
5834;DHT22;2943;48.012;10.968;2022-08-30T12:02:42;26.00;99.90
5834;DHT22;2943;48.012;10.968;2022-08-30T12:08:41;26.10;99.90
5834;DHT22;2943;48.012;10.968;2022-08-30T12:14:40;26.30;99.90
5834;DHT22;2943;48.012;10.968;2022-08-30T12:17:25;26.30;99.90
5834;DHT22;2943;48.012;10.968;2022-08-30T12:20:19;26.40;99.90
5834;DHT22;2943;48.012;10.968;2022-08-30T12:22:47;26.40;99.90
5834;DHT22;2943;48.012;10.968;2022-08-30T12:25:24;26.40;99.90
5834;DHT22;2943;48.012;10.968;2022-08-30T12:28:08;26.40;99.90
5834;DHT22;2943;48.012;10.968;2022-08-30T12:30:36;26.40;99.90
5834;DHT22;2943;48.012;10.968;2022-08-30T12:33:05;26.40;99.90
5834;DHT22;2943;48.012;10.968;2022-08-30T12:35:33;26.50;99.90
5834;DHT22;2943;48.012;10.968;2022-08-30T12:38:02;26.60;99.90
5834;DHT22;2943;48.012;10.968;2022-08-30T12:40:31;26.70;99.90
5834;DHT22;2943;48.012;10.968;2022-08-30T12:43:01;26.80;99.90
5834;DHT22;2943;48.012;10.968;2022-08-30T12:45:34;26.80;99.90
5834;DHT22;2943;48.012;10.968;2022-08-30T12:48:06;26.90;99.90
5834;DHT22;2943;48.012;10.968;2022-08-30T12:50:37;26.90;99.90
5834;DHT22;2943;48.012;10.968;2022-08-30T12:53:11;27.00;99.90
5834;DHT22;2943;48.012;10.968;2022-08-30T12:55:50;26.90;99.90
5834;DHT22;2943;48.012;10.968;2022-08-30T12:58:37;26.80;99.90
5834;DHT22;2943;48.012;10.968;2022-08-30T13:01:17;26.80;99.90
5834;DHT22;2943;48.012;10.968;2022-08-30T13:04:01;26.70;99.90
5834;DHT22;2943;48.012;10.968;2022-08-30T13:06:40;26.80;99.90
5834;DHT22;2943;48.012;10.968;2022-08-30T13:09:09;26.70;99.90
5834;DHT22;2943;48.012;10.968;2022-08-30T13:11:36;26.70;99.90
5834;DHT22;2943;48.012;10.968;2022-08-30T13:14:31;26.70;99.90
5834;DHT22;2943;48.012;10.968;2022-08-30T13:17:22;26.70;99.90
5834;DHT22;2943;48.012;10.968;2022-08-30T13:20:00;26.60;99.90
5834;DHT22;2943;48.012;10.968;2022-08-30T13:22:31;26.70;99.90
5834;DHT22;2943;48.012;10.968;2022-08-30T13:24:59;26.80;99.90
5834;DHT22;2943;48.012;10.968;2022-08-30T13:27:26;27.00;99.90
5834;DHT22;2943;48.012;10.968;2022-08-30T13:29:54;27.10;99.90
5834;DHT22;2943;48.012;10.968;2022-08-30T13:32:21;27.20;99.90
5834;DHT22;2943;48.012;10.968;2022-08-30T13:34:48;27.30;99.90
5834;DHT22;2943;48.012;10.968;2022-08-30T13:37:19;27.40;99.90
5834;DHT22;2943;48.012;10.968;2022-08-30T13:39:47;27.40;99.90
5834;DHT22;2943;48.012;10.968;2022-08-30T13:42:14;27.40;99.90
5834;DHT22;2943;48.012;10.968;2022-08-30T13:44:41;27.50;99.90
5834;DHT22;2943;48.012;10.968;2022-08-30T13:47:08;27.60;99.90
5834;DHT22;2943;48.012;10.968;2022-08-30T13:49:36;27.70;99.90
5834;DHT22;2943;48.012;10.968;2022-08-30T13:52:06;27.70;99.90
5834;DHT22;2943;48.012;10.968;2022-08-30T13:54:34;27.70;99.90
5834;DHT22;2943;48.012;10.968;2022-08-30T13:57:01;27.70;99.90
5834;DHT22;2943;48.012;10.968;2022-08-30T13:59:28;27.70;99.90
5834;DHT22;2943;48.012;10.968;2022-08-30T14:01:58;27.80;99.90
5834;DHT22;2943;48.012;10.968;2022-08-30T14:04:25;27.90;99.90
5834;DHT22;2943;48.012;10.968;2022-08-30T14:06:52;27.90;99.90
5834;DHT22;2943;48.012;10.968;2022-08-30T14:09:19;27.90;99.90
5834;DHT22;2943;48.012;10.968;2022-08-30T14:11:47;28.00;99.90
5834;DHT22;2943;48.012;10.968;2022-08-30T14:14:14;28.00;99.90
5834;DHT22;2943;48.012;10.968;2022-08-30T14:16:42;27.90;99.90
5834;DHT22;2943;48.012;10.968;2022-08-30T14:19:11;27.90;99.90
5834;DHT22;2943;48.012;10.968;2022-08-30T14:21:39;28.00;99.90
5834;DHT22;2943;48.012;10.968;2022-08-30T14:24:06;28.00;99.90
5834;DHT22;2943;48.012;10.968;2022-08-30T14:26:36;28.00;99.90
5834;DHT22;2943;48.012;10.968;2022-08-30T14:29:07;28.00;99.90
5834;DHT22;2943;48.012;10.968;2022-08-30T14:31:34;27.90;99.90
5834;DHT22;2943;48.012;10.968;2022-08-30T14:34:01;27.90;99.90
5834;DHT22;2943;48.012;10.968;2022-08-30T14:36:28;28.00;99.90
5834;DHT22;2943;48.012;10.968;2022-08-30T14:38:55;28.10;99.90
5834;DHT22;2943;48.012;10.968;2022-08-30T14:41:22;28.10;99.90
5834;DHT22;2943;48.012;10.968;2022-08-30T14:43:49;28.10;99.90
5834;DHT22;2943;48.012;10.968;2022-08-30T14:46:18;28.10;99.90
5834;DHT22;2943;48.012;10.968;2022-08-30T14:48:46;28.20;99.90
5834;DHT22;2943;48.012;10.968;2022-08-30T14:51:16;28.20;99.90
5834;DHT22;2943;48.012;10.968;2022-08-30T14:53:43;28.30;99.90
5834;DHT22;2943;48.012;10.968;2022-08-30T14:56:14;28.30;99.90
5834;DHT22;2943;48.012;10.968;2022-08-30T14:58:42;28.40;99.90
5834;DHT22;2943;48.012;10.968;2022-08-30T15:01:10;28.30;99.80
5834;DHT22;2943;48.012;10.968;2022-08-30T15:03:39;28.30;99.70
5834;DHT22;2943;48.012;10.968;2022-08-30T15:06:07;28.30;99.90
5834;DHT22;2943;48.012;10.968;2022-08-30T15:08:35;28.30;99.90
5834;DHT22;2943;48.012;10.968;2022-08-30T15:11:06;28.30;99.90
5834;DHT22;2943;48.012;10.968;2022-08-30T15:13:33;28.30;99.90
5834;DHT22;2943;48.012;10.968;2022-08-30T15:16:00;28.20;99.90
5834;DHT22;2943;48.012;10.968;2022-08-30T15:18:27;28.20;99.90
5834;DHT22;2943;48.012;10.968;2022-08-30T15:20:55;28.20;99.90
5834;DHT22;2943;48.012;10.968;2022-08-30T15:23:22;28.20;99.90
5834;DHT22;2943;48.012;10.968;2022-08-30T15:25:49;28.10;99.80
5834;DHT22;2943;48.012;10.968;2022-08-30T15:28:16;28.10;99.80
5834;DHT22;2943;48.012;10.968;2022-08-30T15:30:43;28.00;99.90
5834;DHT22;2943;48.012;10.968;2022-08-30T15:33:13;28.00;99.70
5834;DHT22;2943;48.012;10.968;2022-08-30T15:35:45;27.80;99.60
5834;DHT22;2943;48.012;10.968;2022-08-30T15:38:13;27.60;99.90
5834;DHT22;2943;48.012;10.968;2022-08-30T15:40:40;27.50;99.90
5834;DHT22;2943;48.012;10.968;2022-08-30T15:43:07;27.40;99.90
5834;DHT22;2943;48.012;10.968;2022-08-30T15:45:34;27.30;99.90
5834;DHT22;2943;48.012;10.968;2022-08-30T15:48:01;27.10;99.90
5834;DHT22;2943;48.012;10.968;2022-08-30T15:50:28;27.00;99.90
5834;DHT22;2943;48.012;10.968;2022-08-30T15:52:54;26.90;99.90
5834;DHT22;2943;48.012;10.968;2022-08-30T15:55:23;26.90;99.90
5834;DHT22;2943;48.012;10.968;2022-08-30T15:57:49;26.90;99.90
5834;DHT22;2943;48.012;10.968;2022-08-30T16:00:17;27.00;99.90
5834;DHT22;2943;48.012;10.968;2022-08-30T16:02:44;27.20;99.90
5834;DHT22;2943;48.012;10.968;2022-08-30T16:05:13;27.30;99.90
5834;DHT22;2943;48.012;10.968;2022-08-30T16:07:40;27.40;99.90
5834;DHT22;2943;48.012;10.968;2022-08-30T16:10:08;27.40;99.90
5834;DHT22;2943;48.012;10.968;2022-08-30T16:12:36;27.50;99.90
5834;DHT22;2943;48.012;10.968;2022-08-30T16:15:03;27.50;99.90
5834;DHT22;2943;48.012;10.968;2022-08-30T16:17:30;27.50;99.90
5834;DHT22;2943;48.012;10.968;2022-08-30T16:19:57;27.60;99.90